sensor_id;sensor_type;location;lat;lon;timestamp;P1;durP1;ratioP1;P2;durP2;ratioP2
51248;SDS011;39642;47.556;18.728;2023-05-31T00:00:47;14.00;;;7.10;;
51248;SDS011;39642;47.556;18.728;2023-05-31T00:03:13;14.43;;;6.85;;
51248;SDS011;39642;47.556;18.728;2023-05-31T00:05:39;14.68;;;6.87;;
51248;SDS011;39642;47.556;18.728;2023-05-31T00:08:05;14.15;;;7.40;;
51248;SDS011;39642;47.556;18.728;2023-05-31T00:10:31;14.73;;;7.28;;
51248;SDS011;39642;47.556;18.728;2023-05-31T00:12:57;14.70;;;7.15;;
51248;SDS011;39642;47.556;18.728;2023-05-31T00:15:24;16.17;;;7.43;;
51248;SDS011;39642;47.556;18.728;2023-05-31T00:17:50;13.50;;;6.55;;
51248;SDS011;39642;47.556;18.728;2023-05-31T00:20:16;15.02;;;7.60;;
51248;SDS011;39642;47.556;18.728;2023-05-31T00:22:43;14.15;;;6.80;;
51248;SDS011;39642;47.556;18.728;2023-05-31T00:25:08;13.35;;;6.68;;
51248;SDS011;39642;47.556;18.728;2023-05-31T00:27:34;13.73;;;6.68;;
51248;SDS011;39642;47.556;18.728;2023-05-31T00:30:00;14.57;;;6.87;;
51248;SDS011;39642;47.556;18.728;2023-05-31T00:32:26;14.05;;;6.85;;
51248;SDS011;39642;47.556;18.728;2023-05-31T00:34:52;14.00;;;6.70;;
51248;SDS011;39642;47.556;18.728;2023-05-31T00:37:18;13.32;;;6.82;;
51248;SDS011;39642;47.556;18.728;2023-05-31T00:39:44;13.75;;;6.62;;
51248;SDS011;39642;47.556;18.728;2023-05-31T00:42:10;14.73;;;6.55;;
51248;SDS011;39642;47.556;18.728;2023-05-31T00:44:36;13.15;;;6.22;;
51248;SDS011;39642;47.556;18.728;2023-05-31T00:47:02;13.55;;;6.22;;
51248;SDS011;39642;47.556;18.728;2023-05-31T00:49:28;12.90;;;6.07;;
51248;SDS011;39642;47.556;18.728;2023-05-31T00:51:54;14.32;;;6.32;;
51248;SDS011;39642;47.556;18.728;2023-05-31T00:54:20;13.43;;;6.22;;
51248;SDS011;39642;47.556;18.728;2023-05-31T00:56:46;13.32;;;6.60;;
51248;SDS011;39642;47.556;18.728;2023-05-31T00:59:12;13.02;;;6.40;;
51248;SDS011;39642;47.556;18.728;2023-05-31T01:01:40;13.70;;;6.68;;
51248;SDS011;39642;47.556;18.728;2023-05-31T01:04:07;13.45;;;6.32;;
51248;SDS011;39642;47.556;18.728;2023-05-31T01:06:33;13.38;;;6.70;;
51248;SDS011;39642;47.556;18.728;2023-05-31T01:09:03;12.43;;;6.05;;
51248;SDS011;39642;47.556;18.728;2023-05-31T01:16:54;12.95;;;6.05;;
51248;SDS011;39642;47.556;18.728;2023-05-31T01:28:24;13.35;;;6.10;;
51248;SDS011;39642;47.556;18.728;2023-05-31T01:30:58;12.68;;;6.15;;
51248;SDS011;39642;47.556;18.728;2023-05-31T01:33:33;15.02;;;5.80;;
51248;SDS011;39642;47.556;18.728;2023-05-31T01:36:01;12.98;;;6.10;;
51248;SDS011;39642;47.556;18.728;2023-05-31T01:38:29;11.98;;;5.78;;
51248;SDS011;39642;47.556;18.728;2023-05-31T01:40:55;12.40;;;6.00;;
51248;SDS011;39642;47.556;18.728;2023-05-31T01:43:23;14.07;;;6.10;;
51248;SDS011;39642;47.556;18.728;2023-05-31T01:45:51;14.32;;;5.97;;
51248;SDS011;39642;47.556;18.728;2023-05-31T01:48:19;13.98;;;5.70;;
51248;SDS011;39642;47.556;18.728;2023-05-31T01:50:45;12.98;;;5.95;;
51248;SDS011;39642;47.556;18.728;2023-05-31T01:53:11;12.65;;;5.82;;
51248;SDS011;39642;47.556;18.728;2023-05-31T01:55:37;12.18;;;5.75;;
51248;SDS011;39642;47.556;18.728;2023-05-31T01:58:03;12.43;;;5.75;;
51248;SDS011;39642;47.556;18.728;2023-05-31T02:00:30;11.93;;;5.75;;
51248;SDS011;39642;47.556;18.728;2023-05-31T02:02:57;12.18;;;5.62;;
51248;SDS011;39642;47.556;18.728;2023-05-31T02:05:23;13.90;;;5.75;;
51248;SDS011;39642;47.556;18.728;2023-05-31T02:07:49;13.55;;;5.55;;
51248;SDS011;39642;47.556;18.728;2023-05-31T02:10:15;12.98;;;5.80;;
51248;SDS011;39642;47.556;18.728;2023-05-31T02:12:42;13.45;;;5.53;;
51248;SDS011;39642;47.556;18.728;2023-05-31T02:15:08;11.57;;;5.47;;
51248;SDS011;39642;47.556;18.728;2023-05-31T02:17:39;12.85;;;5.90;;
51248;SDS011;39642;47.556;18.728;2023-05-31T02:20:09;11.25;;;5.30;;
51248;SDS011;39642;47.556;18.728;2023-05-31T02:22:37;12.37;;;5.47;;
51248;SDS011;39642;47.556;18.728;2023-05-31T02:25:02;12.15;;;5.22;;
51248;SDS011;39642;47.556;18.728;2023-05-31T02:27:29;12.55;;;5.37;;
51248;SDS011;39642;47.556;18.728;2023-05-31T02:29:54;12.55;;;5.60;;
51248;SDS011;39642;47.556;18.728;2023-05-31T02:32:20;12.25;;;5.80;;
51248;SDS011;39642;47.556;18.728;2023-05-31T02:34:46;12.02;;;5.30;;
51248;SDS011;39642;47.556;18.728;2023-05-31T02:37:12;11.45;;;5.25;;
51248;SDS011;39642;47.556;18.728;2023-05-31T02:39:38;11.90;;;5.35;;
51248;SDS011;39642;47.556;18.728;2023-05-31T02:42:04;12.00;;;5.50;;
51248;SDS011;39642;47.556;18.728;2023-05-31T02:44:31;12.93;;;5.80;;
51248;SDS011;39642;47.556;18.728;2023-05-31T02:46:56;12.95;;;5.57;;
51248;SDS011;39642;47.556;18.728;2023-05-31T02:49:22;11.93;;;5.37;;
51248;SDS011;39642;47.556;18.728;2023-05-31T02:51:48;11.93;;;5.70;;
51248;SDS011;39642;47.556;18.728;2023-05-31T02:54:14;12.05;;;5.28;;
51248;SDS011;39642;47.556;18.728;2023-05-31T02:56:40;12.13;;;5.20;;
51248;SDS011;39642;47.556;18.728;2023-05-31T02:59:06;12.23;;;5.75;;
51248;SDS011;39642;47.556;18.728;2023-05-31T03:01:32;12.55;;;5.60;;
51248;SDS011;39642;47.556;18.728;2023-05-31T03:03:58;12.20;;;5.47;;
51248;SDS011;39642;47.556;18.728;2023-05-31T03:06:24;12.60;;;5.47;;
51248;SDS011;39642;47.556;18.728;2023-05-31T03:08:50;10.30;;;4.80;;
51248;SDS011;39642;47.556;18.728;2023-05-31T03:11:16;12.15;;;5.20;;
51248;SDS011;39642;47.556;18.728;2023-05-31T03:13:42;11.68;;;5.47;;
51248;SDS011;39642;47.556;18.728;2023-05-31T03:16:08;12.43;;;5.10;;
51248;SDS011;39642;47.556;18.728;2023-05-31T03:18:34;11.18;;;5.10;;
51248;SDS011;39642;47.556;18.728;2023-05-31T03:21:00;12.45;;;5.22;;
51248;SDS011;39642;47.556;18.728;2023-05-31T03:23:25;11.68;;;5.07;;
51248;SDS011;39642;47.556;18.728;2023-05-31T03:25:51;11.95;;;5.20;;
51248;SDS011;39642;47.556;18.728;2023-05-31T03:28:17;13.10;;;5.65;;
51248;SDS011;39642;47.556;18.728;2023-05-31T03:30:43;12.23;;;5.40;;
51248;SDS011;39642;47.556;18.728;2023-05-31T03:33:09;11.73;;;5.20;;
51248;SDS011;39642;47.556;18.728;2023-05-31T03:35:35;11.73;;;5.50;;
51248;SDS011;39642;47.556;18.728;2023-05-31T03:38:01;11.70;;;5.30;;
51248;SDS011;39642;47.556;18.728;2023-05-31T03:40:27;10.52;;;5.05;;
51248;SDS011;39642;47.556;18.728;2023-05-31T03:42:53;12.10;;;5.40;;
51248;SDS011;39642;47.556;18.728;2023-05-31T03:45:19;11.82;;;5.40;;
51248;SDS011;39642;47.556;18.728;2023-05-31T03:47:45;11.20;;;5.00;;
51248;SDS011;39642;47.556;18.728;2023-05-31T03:50:11;11.80;;;5.00;;
51248;SDS011;39642;47.556;18.728;2023-05-31T03:52:37;12.37;;;5.30;;
51248;SDS011;39642;47.556;18.728;2023-05-31T03:55:04;10.82;;;4.55;;
51248;SDS011;39642;47.556;18.728;2023-05-31T03:57:31;11.32;;;5.07;;
51248;SDS011;39642;47.556;18.728;2023-05-31T03:59:57;11.65;;;4.90;;
51248;SDS011;39642;47.556;18.728;2023-05-31T04:02:23;12.43;;;5.20;;
51248;SDS011;39642;47.556;18.728;2023-05-31T04:04:48;11.10;;;4.75;;
51248;SDS011;39642;47.556;18.728;2023-05-31T04:07:15;10.88;;;5.07;;
51248;SDS011;39642;47.556;18.728;2023-05-31T04:09:41;11.38;;;5.10;;
51248;SDS011;39642;47.556;18.728;2023-05-31T04:12:07;11.32;;;4.80;;
51248;SDS011;39642;47.556;18.728;2023-05-31T04:14:33;12.07;;;5.10;;
51248;SDS011;39642;47.556;18.728;2023-05-31T04:16:59;10.88;;;4.70;;
51248;SDS011;39642;47.556;18.728;2023-05-31T04:19:25;14.00;;;5.50;;
51248;SDS011;39642;47.556;18.728;2023-05-31T04:21:51;10.77;;;4.95;;
51248;SDS011;39642;47.556;18.728;2023-05-31T04:24:17;11.77;;;5.50;;
51248;SDS011;39642;47.556;18.728;2023-05-31T04:26:43;11.25;;;5.15;;
51248;SDS011;39642;47.556;18.728;2023-05-31T04:29:10;13.43;;;4.53;;
51248;SDS011;39642;47.556;18.728;2023-05-31T04:31:37;12.02;;;5.18;;
51248;SDS011;39642;47.556;18.728;2023-05-31T04:34:03;11.30;;;5.00;;
51248;SDS011;39642;47.556;18.728;2023-05-31T04:36:29;11.30;;;4.75;;
51248;SDS011;39642;47.556;18.728;2023-05-31T04:38:58;13.00;;;5.03;;
51248;SDS011;39642;47.556;18.728;2023-05-31T04:41:24;11.48;;;5.07;;
51248;SDS011;39642;47.556;18.728;2023-05-31T04:43:51;13.77;;;5.25;;
51248;SDS011;39642;47.556;18.728;2023-05-31T04:46:19;12.90;;;4.57;;
51248;SDS011;39642;47.556;18.728;2023-05-31T04:48:47;13.77;;;5.82;;
51248;SDS011;39642;47.556;18.728;2023-05-31T04:51:18;15.60;;;5.75;;
51248;SDS011;39642;47.556;18.728;2023-05-31T04:53:47;13.10;;;5.35;;
51248;SDS011;39642;47.556;18.728;2023-05-31T04:56:13;12.98;;;5.68;;
51248;SDS011;39642;47.556;18.728;2023-05-31T04:58:39;16.50;;;6.70;;
51248;SDS011;39642;47.556;18.728;2023-05-31T05:01:06;16.95;;;7.47;;
51248;SDS011;39642;47.556;18.728;2023-05-31T05:03:33;13.05;;;5.10;;
51248;SDS011;39642;47.556;18.728;2023-05-31T05:06:11;17.75;;;7.68;;
51248;SDS011;39642;47.556;18.728;2023-05-31T05:08:44;15.48;;;6.57;;
51248;SDS011;39642;47.556;18.728;2023-05-31T05:11:11;21.17;;;9.38;;
51248;SDS011;39642;47.556;18.728;2023-05-31T05:13:37;14.75;;;6.15;;
51248;SDS011;39642;47.556;18.728;2023-05-31T05:16:04;20.98;;;9.55;;
51248;SDS011;39642;47.556;18.728;2023-05-31T05:18:30;16.42;;;5.85;;
51248;SDS011;39642;47.556;18.728;2023-05-31T05:20:56;24.60;;;9.52;;
51248;SDS011;39642;47.556;18.728;2023-05-31T05:23:23;30.92;;;14.25;;
51248;SDS011;39642;47.556;18.728;2023-05-31T05:25:49;40.70;;;16.50;;
51248;SDS011;39642;47.556;18.728;2023-05-31T05:28:15;22.87;;;9.15;;
51248;SDS011;39642;47.556;18.728;2023-05-31T05:30:41;21.33;;;8.20;;
51248;SDS011;39642;47.556;18.728;2023-05-31T05:33:08;23.45;;;8.25;;
51248;SDS011;39642;47.556;18.728;2023-05-31T05:35:34;17.25;;;6.43;;
51248;SDS011;39642;47.556;18.728;2023-05-31T05:38:00;19.92;;;6.20;;
51248;SDS011;39642;47.556;18.728;2023-05-31T05:40:26;15.05;;;5.50;;
51248;SDS011;39642;47.556;18.728;2023-05-31T05:42:53;17.98;;;5.70;;
51248;SDS011;39642;47.556;18.728;2023-05-31T05:45:19;26.08;;;6.37;;
51248;SDS011;39642;47.556;18.728;2023-05-31T05:47:45;16.83;;;6.05;;
51248;SDS011;39642;47.556;18.728;2023-05-31T05:50:13;26.62;;;5.07;;
51248;SDS011;39642;47.556;18.728;2023-05-31T05:52:39;22.08;;;5.25;;
51248;SDS011;39642;47.556;18.728;2023-05-31T05:55:06;15.52;;;4.95;;
51248;SDS011;39642;47.556;18.728;2023-05-31T05:57:32;19.98;;;4.70;;
51248;SDS011;39642;47.556;18.728;2023-05-31T05:59:58;19.08;;;4.85;;
51248;SDS011;39642;47.556;18.728;2023-05-31T06:02:24;18.20;;;4.90;;
51248;SDS011;39642;47.556;18.728;2023-05-31T06:04:50;18.17;;;4.95;;
51248;SDS011;39642;47.556;18.728;2023-05-31T06:07:17;14.18;;;4.70;;
51248;SDS011;39642;47.556;18.728;2023-05-31T06:09:43;13.40;;;4.72;;
51248;SDS011;39642;47.556;18.728;2023-05-31T06:12:10;18.00;;;5.30;;
51248;SDS011;39642;47.556;18.728;2023-05-31T06:14:35;21.37;;;6.07;;
51248;SDS011;39642;47.556;18.728;2023-05-31T06:17:01;18.60;;;5.53;;
51248;SDS011;39642;47.556;18.728;2023-05-31T06:19:27;18.02;;;5.53;;
51248;SDS011;39642;47.556;18.728;2023-05-31T06:21:53;19.95;;;6.03;;
51248;SDS011;39642;47.556;18.728;2023-05-31T06:24:21;20.40;;;7.18;;
51248;SDS011;39642;47.556;18.728;2023-05-31T06:26:47;21.58;;;7.70;;
51248;SDS011;39642;47.556;18.728;2023-05-31T06:29:13;18.83;;;6.60;;
51248;SDS011;39642;47.556;18.728;2023-05-31T06:31:39;23.87;;;8.90;;
51248;SDS011;39642;47.556;18.728;2023-05-31T06:34:05;24.58;;;6.90;;
51248;SDS011;39642;47.556;18.728;2023-05-31T06:36:31;17.58;;;6.18;;
51248;SDS011;39642;47.556;18.728;2023-05-31T06:38:57;22.25;;;5.57;;
51248;SDS011;39642;47.556;18.728;2023-05-31T06:41:24;21.98;;;6.50;;
51248;SDS011;39642;47.556;18.728;2023-05-31T06:43:52;14.15;;;5.45;;
51248;SDS011;39642;47.556;18.728;2023-05-31T06:46:17;15.70;;;5.32;;
51248;SDS011;39642;47.556;18.728;2023-05-31T06:48:43;24.02;;;6.10;;
51248;SDS011;39642;47.556;18.728;2023-05-31T06:51:09;23.33;;;6.68;;
51248;SDS011;39642;47.556;18.728;2023-05-31T06:53:36;24.65;;;6.40;;
51248;SDS011;39642;47.556;18.728;2023-05-31T06:56:02;22.52;;;6.10;;
51248;SDS011;39642;47.556;18.728;2023-05-31T06:58:31;17.30;;;5.30;;
51248;SDS011;39642;47.556;18.728;2023-05-31T07:00:57;22.02;;;5.70;;
51248;SDS011;39642;47.556;18.728;2023-05-31T07:03:23;26.60;;;6.35;;
51248;SDS011;39642;47.556;18.728;2023-05-31T07:05:49;25.60;;;5.85;;
51248;SDS011;39642;47.556;18.728;2023-05-31T07:08:16;34.55;;;7.03;;
51248;SDS011;39642;47.556;18.728;2023-05-31T07:10:41;34.00;;;6.47;;
51248;SDS011;39642;47.556;18.728;2023-05-31T07:13:07;26.20;;;5.87;;
51248;SDS011;39642;47.556;18.728;2023-05-31T07:15:33;23.38;;;5.57;;
51248;SDS011;39642;47.556;18.728;2023-05-31T07:18:00;28.35;;;5.82;;
51248;SDS011;39642;47.556;18.728;2023-05-31T07:20:25;22.70;;;5.80;;
51248;SDS011;39642;47.556;18.728;2023-05-31T07:22:51;22.65;;;5.30;;
51248;SDS011;39642;47.556;18.728;2023-05-31T07:25:17;18.27;;;5.40;;
51248;SDS011;39642;47.556;18.728;2023-05-31T07:27:43;22.20;;;5.18;;
51248;SDS011;39642;47.556;18.728;2023-05-31T07:30:09;16.70;;;4.72;;
51248;SDS011;39642;47.556;18.728;2023-05-31T07:32:35;19.37;;;5.40;;
51248;SDS011;39642;47.556;18.728;2023-05-31T07:35:02;22.90;;;5.12;;
51248;SDS011;39642;47.556;18.728;2023-05-31T07:37:28;17.42;;;4.78;;
51248;SDS011;39642;47.556;18.728;2023-05-31T07:39:55;19.83;;;5.00;;
51248;SDS011;39642;47.556;18.728;2023-05-31T07:42:20;20.12;;;5.53;;
51248;SDS011;39642;47.556;18.728;2023-05-31T07:44:47;17.37;;;5.00;;
51248;SDS011;39642;47.556;18.728;2023-05-31T07:47:14;20.10;;;5.30;;
51248;SDS011;39642;47.556;18.728;2023-05-31T07:49:41;16.40;;;4.80;;
51248;SDS011;39642;47.556;18.728;2023-05-31T07:52:07;29.48;;;5.40;;
51248;SDS011;39642;47.556;18.728;2023-05-31T07:54:33;21.52;;;5.35;;
51248;SDS011;39642;47.556;18.728;2023-05-31T07:56:59;21.60;;;5.15;;
51248;SDS011;39642;47.556;18.728;2023-05-31T07:59:26;29.25;;;5.40;;
51248;SDS011;39642;47.556;18.728;2023-05-31T08:01:52;33.45;;;6.47;;
51248;SDS011;39642;47.556;18.728;2023-05-31T08:15:03;27.50;;;5.30;;
51248;SDS011;39642;47.556;18.728;2023-05-31T08:17:30;24.48;;;5.20;;
51248;SDS011;39642;47.556;18.728;2023-05-31T08:19:56;23.15;;;5.90;;
51248;SDS011;39642;47.556;18.728;2023-05-31T08:22:22;20.75;;;5.22;;
51248;SDS011;39642;47.556;18.728;2023-05-31T08:24:49;19.62;;;5.50;;
51248;SDS011;39642;47.556;18.728;2023-05-31T08:27:15;20.70;;;5.07;;
51248;SDS011;39642;47.556;18.728;2023-05-31T08:29:43;27.45;;;5.30;;
51248;SDS011;39642;47.556;18.728;2023-05-31T08:32:09;18.35;;;5.40;;
51248;SDS011;39642;47.556;18.728;2023-05-31T08:34:35;15.80;;;5.07;;
51248;SDS011;39642;47.556;18.728;2023-05-31T08:37:01;22.62;;;5.53;;
51248;SDS011;39642;47.556;18.728;2023-05-31T08:39:27;16.30;;;4.80;;
51248;SDS011;39642;47.556;18.728;2023-05-31T08:42:03;27.95;;;5.55;;
51248;SDS011;39642;47.556;18.728;2023-05-31T08:44:31;23.05;;;5.32;;
51248;SDS011;39642;47.556;18.728;2023-05-31T08:46:58;65.65;;;7.50;;
51248;SDS011;39642;47.556;18.728;2023-05-31T08:49:33;32.95;;;5.72;;
51248;SDS011;39642;47.556;18.728;2023-05-31T08:51:59;34.83;;;5.25;;
51248;SDS011;39642;47.556;18.728;2023-05-31T08:54:26;34.88;;;5.62;;
51248;SDS011;39642;47.556;18.728;2023-05-31T08:56:52;35.65;;;5.70;;
51248;SDS011;39642;47.556;18.728;2023-05-31T08:59:18;27.52;;;5.62;;
51248;SDS011;39642;47.556;18.728;2023-05-31T09:01:45;36.30;;;5.82;;
51248;SDS011;39642;47.556;18.728;2023-05-31T09:04:13;33.20;;;5.70;;
51248;SDS011;39642;47.556;18.728;2023-05-31T09:06:39;40.65;;;6.37;;
51248;SDS011;39642;47.556;18.728;2023-05-31T09:09:05;32.22;;;5.70;;
51248;SDS011;39642;47.556;18.728;2023-05-31T09:11:36;28.35;;;5.30;;
51248;SDS011;39642;47.556;18.728;2023-05-31T09:14:05;17.95;;;4.75;;
51248;SDS011;39642;47.556;18.728;2023-05-31T09:16:31;26.37;;;4.97;;
51248;SDS011;39642;47.556;18.728;2023-05-31T09:19:00;23.12;;;5.30;;
51248;SDS011;39642;47.556;18.728;2023-05-31T09:21:28;20.80;;;4.82;;
51248;SDS011;39642;47.556;18.728;2023-05-31T09:23:55;24.98;;;5.22;;
51248;SDS011;39642;47.556;18.728;2023-05-31T09:26:22;28.02;;;5.47;;
51248;SDS011;39642;47.556;18.728;2023-05-31T09:28:52;26.58;;;5.55;;
51248;SDS011;39642;47.556;18.728;2023-05-31T09:31:19;23.42;;;5.68;;
51248;SDS011;39642;47.556;18.728;2023-05-31T09:33:46;32.20;;;5.25;;
51248;SDS011;39642;47.556;18.728;2023-05-31T09:38:58;29.48;;;5.70;;
51248;SDS011;39642;47.556;18.728;2023-05-31T09:41:27;27.48;;;5.82;;
51248;SDS011;39642;47.556;18.728;2023-05-31T09:43:53;17.50;;;4.70;;
51248;SDS011;39642;47.556;18.728;2023-05-31T09:46:20;16.75;;;4.32;;
51248;SDS011;39642;47.556;18.728;2023-05-31T09:48:57;15.48;;;4.35;;
51248;SDS011;39642;47.556;18.728;2023-05-31T09:51:27;17.77;;;4.90;;
51248;SDS011;39642;47.556;18.728;2023-05-31T09:53:54;36.42;;;5.70;;
51248;SDS011;39642;47.556;18.728;2023-05-31T09:56:26;47.62;;;6.45;;
51248;SDS011;39642;47.556;18.728;2023-05-31T09:58:56;39.42;;;5.93;;
51248;SDS011;39642;47.556;18.728;2023-05-31T10:01:23;30.75;;;5.65;;
51248;SDS011;39642;47.556;18.728;2023-05-31T10:03:49;32.00;;;5.22;;
51248;SDS011;39642;47.556;18.728;2023-05-31T10:06:16;23.38;;;5.30;;
51248;SDS011;39642;47.556;18.728;2023-05-31T10:08:43;24.85;;;5.40;;
51248;SDS011;39642;47.556;18.728;2023-05-31T10:11:11;18.15;;;5.18;;
51248;SDS011;39642;47.556;18.728;2023-05-31T10:13:42;27.00;;;5.10;;
51248;SDS011;39642;47.556;18.728;2023-05-31T10:16:11;21.48;;;5.10;;
51248;SDS011;39642;47.556;18.728;2023-05-31T10:18:37;21.77;;;5.10;;
51248;SDS011;39642;47.556;18.728;2023-05-31T10:23:54;31.30;;;5.45;;
51248;SDS011;39642;47.556;18.728;2023-05-31T10:29:43;18.12;;;5.70;;
51248;SDS011;39642;47.556;18.728;2023-05-31T10:32:16;39.60;;;6.60;;
51248;SDS011;39642;47.556;18.728;2023-05-31T10:34:46;30.75;;;5.62;;
51248;SDS011;39642;47.556;18.728;2023-05-31T10:37:13;29.42;;;5.78;;
51248;SDS011;39642;47.556;18.728;2023-05-31T10:39:43;37.22;;;6.32;;
51248;SDS011;39642;47.556;18.728;2023-05-31T10:42:17;15.10;;;4.50;;
51248;SDS011;39642;47.556;18.728;2023-05-31T10:50:57;24.27;;;4.80;;
51248;SDS011;39642;47.556;18.728;2023-05-31T10:53:28;24.87;;;5.45;;
51248;SDS011;39642;47.556;18.728;2023-05-31T10:56:03;44.53;;;7.00;;
51248;SDS011;39642;47.556;18.728;2023-05-31T10:58:33;30.75;;;6.50;;
51248;SDS011;39642;47.556;18.728;2023-05-31T11:01:05;44.30;;;7.57;;
51248;SDS011;39642;47.556;18.728;2023-05-31T11:03:33;30.05;;;6.25;;
51248;SDS011;39642;47.556;18.728;2023-05-31T11:06:08;23.75;;;5.80;;
51248;SDS011;39642;47.556;18.728;2023-05-31T11:08:36;28.65;;;5.85;;
51248;SDS011;39642;47.556;18.728;2023-05-31T11:16:24;23.48;;;5.57;;
51248;SDS011;39642;47.556;18.728;2023-05-31T11:19:36;21.08;;;5.20;;
51248;SDS011;39642;47.556;18.728;2023-05-31T11:21:47;20.10;;;5.53;;
51248;SDS011;39642;47.556;18.728;2023-05-31T11:27:00;29.25;;;6.03;;
51248;SDS011;39642;47.556;18.728;2023-05-31T11:35:03;24.05;;;5.32;;
51248;SDS011;39642;47.556;18.728;2023-05-31T11:37:32;32.35;;;6.07;;
51248;SDS011;39642;47.556;18.728;2023-05-31T11:40:19;19.17;;;5.53;;
51248;SDS011;39642;47.556;18.728;2023-05-31T11:42:45;18.23;;;4.75;;
51248;SDS011;39642;47.556;18.728;2023-05-31T11:48:11;22.52;;;5.25;;
51248;SDS011;39642;47.556;18.728;2023-05-31T11:50:47;25.88;;;5.90;;
51248;SDS011;39642;47.556;18.728;2023-05-31T11:53:13;15.73;;;4.62;;
51248;SDS011;39642;47.556;18.728;2023-05-31T11:55:39;19.90;;;5.60;;
51248;SDS011;39642;47.556;18.728;2023-05-31T11:58:11;19.05;;;5.15;;
51248;SDS011;39642;47.556;18.728;2023-05-31T12:00:42;18.42;;;4.62;;
51248;SDS011;39642;47.556;18.728;2023-05-31T12:03:13;16.75;;;4.75;;
51248;SDS011;39642;47.556;18.728;2023-05-31T12:05:40;21.45;;;4.80;;
51248;SDS011;39642;47.556;18.728;2023-05-31T12:08:06;21.45;;;5.25;;
51248;SDS011;39642;47.556;18.728;2023-05-31T12:10:38;17.85;;;5.22;;
51248;SDS011;39642;47.556;18.728;2023-05-31T12:13:04;15.77;;;4.78;;
51248;SDS011;39642;47.556;18.728;2023-05-31T12:15:30;15.68;;;4.93;;
51248;SDS011;39642;47.556;18.728;2023-05-31T12:18:00;41.08;;;5.30;;
51248;SDS011;39642;47.556;18.728;2023-05-31T12:20:27;22.20;;;5.10;;
51248;SDS011;39642;47.556;18.728;2023-05-31T12:23:08;19.62;;;5.37;;
51248;SDS011;39642;47.556;18.728;2023-05-31T12:25:42;13.90;;;4.35;;
51248;SDS011;39642;47.556;18.728;2023-05-31T12:28:09;14.75;;;4.70;;
51248;SDS011;39642;47.556;18.728;2023-05-31T12:30:43;15.65;;;5.00;;
51248;SDS011;39642;47.556;18.728;2023-05-31T12:33:10;19.52;;;5.22;;
51248;SDS011;39642;47.556;18.728;2023-05-31T12:35:43;22.77;;;5.82;;
51248;SDS011;39642;47.556;18.728;2023-05-31T12:38:11;25.55;;;5.40;;
51248;SDS011;39642;47.556;18.728;2023-05-31T12:40:37;18.83;;;5.05;;
51248;SDS011;39642;47.556;18.728;2023-05-31T12:43:05;21.08;;;5.40;;
51248;SDS011;39642;47.556;18.728;2023-05-31T12:45:32;16.52;;;4.72;;
51248;SDS011;39642;47.556;18.728;2023-05-31T12:48:03;15.65;;;4.57;;
51248;SDS011;39642;47.556;18.728;2023-05-31T12:50:29;17.20;;;5.03;;
51248;SDS011;39642;47.556;18.728;2023-05-31T12:52:55;22.42;;;5.05;;
51248;SDS011;39642;47.556;18.728;2023-05-31T12:55:22;19.65;;;4.75;;
51248;SDS011;39642;47.556;18.728;2023-05-31T13:01:10;21.12;;;4.87;;
51248;SDS011;39642;47.556;18.728;2023-05-31T13:03:37;16.90;;;4.90;;
51248;SDS011;39642;47.556;18.728;2023-05-31T13:06:03;20.67;;;5.78;;
51248;SDS011;39642;47.556;18.728;2023-05-31T13:08:30;17.08;;;5.18;;
51248;SDS011;39642;47.556;18.728;2023-05-31T13:10:56;21.48;;;5.50;;
51248;SDS011;39642;47.556;18.728;2023-05-31T13:13:22;24.75;;;6.00;;
51248;SDS011;39642;47.556;18.728;2023-05-31T13:15:48;26.10;;;5.25;;
51248;SDS011;39642;47.556;18.728;2023-05-31T13:18:13;22.55;;;5.07;;
51248;SDS011;39642;47.556;18.728;2023-05-31T13:20:39;26.00;;;5.32;;
51248;SDS011;39642;47.556;18.728;2023-05-31T13:23:05;22.05;;;5.25;;
51248;SDS011;39642;47.556;18.728;2023-05-31T13:25:34;16.15;;;4.93;;
51248;SDS011;39642;47.556;18.728;2023-05-31T13:28:00;23.62;;;5.47;;
51248;SDS011;39642;47.556;18.728;2023-05-31T13:30:26;22.17;;;5.50;;
51248;SDS011;39642;47.556;18.728;2023-05-31T13:32:52;24.25;;;5.45;;
51248;SDS011;39642;47.556;18.728;2023-05-31T13:35:18;21.80;;;4.97;;
51248;SDS011;39642;47.556;18.728;2023-05-31T13:37:44;28.27;;;5.53;;
51248;SDS011;39642;47.556;18.728;2023-05-31T13:40:10;21.75;;;5.18;;
51248;SDS011;39642;47.556;18.728;2023-05-31T13:42:37;21.05;;;5.40;;
51248;SDS011;39642;47.556;18.728;2023-05-31T13:45:03;16.45;;;4.80;;
51248;SDS011;39642;47.556;18.728;2023-05-31T13:47:29;24.05;;;5.82;;
51248;SDS011;39642;47.556;18.728;2023-05-31T13:49:55;17.55;;;5.12;;
51248;SDS011;39642;47.556;18.728;2023-05-31T13:52:21;18.83;;;4.70;;
51248;SDS011;39642;47.556;18.728;2023-05-31T13:54:48;32.25;;;5.70;;
51248;SDS011;39642;47.556;18.728;2023-05-31T13:57:13;27.37;;;5.47;;
51248;SDS011;39642;47.556;18.728;2023-05-31T13:59:40;37.08;;;6.25;;
51248;SDS011;39642;47.556;18.728;2023-05-31T14:02:05;26.67;;;6.07;;
51248;SDS011;39642;47.556;18.728;2023-05-31T14:04:31;22.27;;;5.00;;
51248;SDS011;39642;47.556;18.728;2023-05-31T14:06:57;21.02;;;4.87;;
51248;SDS011;39642;47.556;18.728;2023-05-31T14:09:23;21.65;;;4.87;;
51248;SDS011;39642;47.556;18.728;2023-05-31T14:11:49;27.17;;;5.68;;
51248;SDS011;39642;47.556;18.728;2023-05-31T14:14:15;29.58;;;5.78;;
51248;SDS011;39642;47.556;18.728;2023-05-31T14:16:41;23.65;;;5.55;;
51248;SDS011;39642;47.556;18.728;2023-05-31T14:19:07;16.12;;;4.65;;
51248;SDS011;39642;47.556;18.728;2023-05-31T14:21:33;14.57;;;4.70;;
51248;SDS011;39642;47.556;18.728;2023-05-31T14:24:00;14.90;;;4.70;;
51248;SDS011;39642;47.556;18.728;2023-05-31T14:26:25;15.25;;;4.68;;
51248;SDS011;39642;47.556;18.728;2023-05-31T14:28:52;13.05;;;4.65;;
51248;SDS011;39642;47.556;18.728;2023-05-31T14:31:18;17.45;;;5.22;;
51248;SDS011;39642;47.556;18.728;2023-05-31T14:33:44;15.57;;;5.28;;
51248;SDS011;39642;47.556;18.728;2023-05-31T14:36:09;18.02;;;4.95;;
51248;SDS011;39642;47.556;18.728;2023-05-31T14:38:35;15.35;;;4.75;;
51248;SDS011;39642;47.556;18.728;2023-05-31T14:41:02;17.90;;;5.03;;
51248;SDS011;39642;47.556;18.728;2023-05-31T14:43:28;16.65;;;5.20;;
51248;SDS011;39642;47.556;18.728;2023-05-31T14:45:54;16.48;;;5.40;;
51248;SDS011;39642;47.556;18.728;2023-05-31T14:48:20;13.23;;;5.20;;
51248;SDS011;39642;47.556;18.728;2023-05-31T14:50:46;17.48;;;5.25;;
51248;SDS011;39642;47.556;18.728;2023-05-31T14:53:11;17.55;;;5.00;;
51248;SDS011;39642;47.556;18.728;2023-05-31T14:55:39;14.30;;;4.68;;
51248;SDS011;39642;47.556;18.728;2023-05-31T14:58:05;15.02;;;4.70;;
51248;SDS011;39642;47.556;18.728;2023-05-31T15:00:31;13.73;;;4.60;;
51248;SDS011;39642;47.556;18.728;2023-05-31T15:02:57;15.55;;;4.60;;
51248;SDS011;39642;47.556;18.728;2023-05-31T15:05:23;13.40;;;4.60;;
51248;SDS011;39642;47.556;18.728;2023-05-31T15:07:49;15.15;;;4.65;;
51248;SDS011;39642;47.556;18.728;2023-05-31T15:10:15;12.85;;;4.55;;
51248;SDS011;39642;47.556;18.728;2023-05-31T15:12:41;11.88;;;4.62;;
51248;SDS011;39642;47.556;18.728;2023-05-31T15:15:07;14.73;;;4.68;;
51248;SDS011;39642;47.556;18.728;2023-05-31T15:17:33;11.38;;;4.47;;
51248;SDS011;39642;47.556;18.728;2023-05-31T15:19:59;11.43;;;4.62;;